createdAt,value
2018-11-23T00:01:10.265Z,-0.50
2018-11-23T00:03:38.719Z,-0.40
2018-11-23T00:06:07.202Z,-0.40
2018-11-23T00:08:35.678Z,-0.40
2018-11-23T00:11:04.182Z,-0.30
2018-11-23T00:13:32.644Z,-0.20
2018-11-23T00:16:01.102Z,-0.20
2018-11-23T00:18:29.566Z,-0.10
2018-11-23T00:20:58.037Z,0.00
2018-11-23T00:23:26.529Z,0.00
2018-11-23T00:25:54.980Z,0.10
2018-11-23T00:28:23.432Z,0.10
2018-11-23T00:30:51.877Z,0.20
2018-11-23T00:33:20.337Z,0.30
2018-11-23T00:35:48.805Z,0.30
2018-11-23T00:38:17.253Z,0.30
2018-11-23T00:40:45.705Z,0.30
2018-11-23T00:43:14.270Z,0.40
2018-11-23T00:45:43.057Z,0.40
2018-11-23T00:48:11.218Z,0.40
2018-11-23T00:50:39.656Z,0.40
2018-11-23T00:53:08.131Z,0.40
2018-11-23T00:55:36.584Z,0.40
2018-11-23T00:58:05.058Z,0.40
2018-11-23T01:00:34.468Z,0.40
2018-11-23T01:03:03.993Z,0.30
2018-11-23T01:05:32.461Z,0.30
2018-11-23T01:08:01.019Z,0.30
2018-11-23T01:10:30.356Z,0.30
2018-11-23T01:12:58.935Z,0.30
2018-11-23T01:15:27.468Z,0.40
2018-11-23T01:17:55.924Z,0.40
2018-11-23T01:20:26.549Z,0.50
2018-11-23T01:22:55.723Z,0.50
2018-11-23T01:25:25.142Z,0.50
2018-11-23T01:27:54.421Z,0.50
2018-11-23T01:30:25.307Z,0.50
2018-11-23T01:32:53.802Z,0.50
2018-11-23T01:35:22.306Z,0.50
2018-11-23T01:37:50.796Z,0.50
2018-11-23T01:40:21.157Z,0.50
2018-11-23T01:42:49.711Z,0.50
2018-11-23T01:45:18.285Z,0.50
2018-11-23T01:47:46.781Z,0.50
2018-11-23T01:50:18.322Z,0.60
2018-11-23T01:52:47.956Z,0.50
2018-11-23T01:55:17.264Z,0.60
2018-11-23T01:57:46.045Z,0.50
2018-11-23T02:00:16.505Z,0.50
2018-11-23T02:02:45.552Z,0.50
2018-11-23T02:05:14.017Z,0.50
2018-11-23T02:07:42.497Z,0.50
2018-11-23T02:10:12.461Z,0.50
2018-11-23T02:12:40.892Z,0.60
2018-11-23T02:15:13.928Z,0.60
2018-11-23T02:17:42.376Z,0.60
2018-11-23T02:20:12.197Z,0.60
2018-11-23T02:22:40.645Z,0.60
2018-11-23T02:25:09.120Z,0.60
2018-11-23T02:27:37.573Z,0.60
2018-11-23T02:30:10.386Z,0.60
2018-11-23T02:32:38.820Z,0.60
2018-11-23T02:35:07.312Z,0.60
2018-11-23T02:37:35.781Z,0.70
2018-11-23T02:40:04.493Z,0.70
2018-11-23T02:42:32.973Z,0.80
2018-11-23T02:45:01.474Z,0.80
2018-11-23T02:47:29.909Z,0.80
2018-11-23T02:49:58.325Z,0.80
2018-11-23T02:52:26.760Z,0.70
2018-11-23T02:54:55.230Z,0.70
2018-11-23T02:57:23.677Z,0.70
2018-11-23T02:59:52.117Z,0.70
2018-11-23T03:02:20.561Z,0.70
2018-11-23T03:04:48.984Z,0.70
2018-11-23T03:07:17.413Z,0.70
2018-11-23T03:09:45.841Z,0.70
2018-11-23T03:12:14.330Z,0.70
2018-11-23T03:14:42.744Z,0.70
2018-11-23T03:17:11.185Z,0.70
2018-11-23T03:19:39.608Z,0.70
2018-11-23T03:22:08.100Z,0.70
2018-11-23T03:24:36.537Z,0.70
2018-11-23T03:27:05.032Z,0.70
2018-11-23T03:29:33.455Z,0.70
2018-11-23T03:32:01.905Z,0.70
2018-11-23T03:34:30.334Z,0.70
2018-11-23T03:36:58.782Z,0.70
2018-11-23T03:39:30.410Z,0.60
2018-11-23T03:41:55.765Z,0.60
2018-11-23T03:44:24.254Z,0.60
2018-11-23T03:46:52.741Z,0.60
2018-11-23T03:49:21.201Z,0.50
2018-11-23T03:51:49.673Z,0.50
2018-11-23T03:54:18.138Z,0.50
2018-11-23T03:56:46.615Z,0.50
2018-11-23T03:59:15.094Z,0.40
2018-11-23T04:01:43.546Z,0.40
2018-11-23T04:04:12.016Z,0.30
2018-11-23T04:06:40.465Z,0.30
2018-11-23T04:09:09.235Z,0.20
2018-11-23T04:11:38.002Z,0.10
2018-11-23T04:14:06.505Z,0.10
2018-11-23T04:16:34.953Z,0.00
2018-11-23T04:19:03.417Z,0.00
2018-11-23T04:21:31.869Z,0.00
2018-11-23T04:24:00.341Z,-0.10
2018-11-23T04:26:28.785Z,-0.20
2018-11-23T04:28:57.250Z,-0.20
2018-11-23T04:31:25.684Z,-0.30
2018-11-23T04:33:54.137Z,-0.30
2018-11-23T04:36:22.577Z,-0.40
2018-11-23T04:38:51.033Z,-0.50
2018-11-23T04:41:19.502Z,-0.60
2018-11-23T04:43:48.305Z,-0.60
2018-11-23T04:46:16.757Z,-0.60
2018-11-23T04:48:45.206Z,-0.60
2018-11-23T04:51:13.676Z,-0.70
2018-11-23T04:53:42.137Z,-0.70
2018-11-23T04:56:10.610Z,-0.70
2018-11-23T05:01:18.153Z,-0.70
2018-11-23T05:03:46.572Z,-0.80
2018-11-23T05:06:15.131Z,-0.80
2018-11-23T05:08:43.589Z,-0.80
2018-11-23T05:11:12.035Z,-0.80
2018-11-23T05:13:40.449Z,-0.90
2018-11-23T05:16:08.876Z,-0.90
2018-11-23T05:18:37.292Z,-1.00
2018-11-23T05:21:05.843Z,-1.00
2018-11-23T05:23:34.256Z,-1.00
2018-11-23T05:26:02.704Z,-1.00
2018-11-23T05:28:31.113Z,-1.00
2018-11-23T05:30:59.544Z,-1.00
2018-11-23T05:33:27.957Z,-1.10
2018-11-23T05:35:56.396Z,-1.10
2018-11-23T05:38:24.813Z,-1.10
2018-11-23T05:40:53.249Z,-1.00
2018-11-23T05:43:21.795Z,-1.10
2018-11-23T05:45:50.224Z,-1.10
2018-11-23T05:48:19.002Z,-1.10
2018-11-23T05:50:47.128Z,-1.20
2018-11-23T05:53:15.577Z,-1.30
2018-11-23T05:55:43.992Z,-1.30
2018-11-23T05:58:12.424Z,-1.30
2018-11-23T06:00:40.909Z,-1.40
2018-11-23T06:03:09.352Z,-1.30
2018-11-23T06:05:37.780Z,-1.30
2018-11-23T06:08:06.233Z,-1.30
2018-11-23T06:10:34.642Z,-1.20
2018-11-23T06:13:03.089Z,-1.20
2018-11-23T06:15:31.501Z,-1.10
2018-11-23T06:17:59.981Z,-1.00
2018-11-23T06:20:28.393Z,-0.90
2018-11-23T06:22:56.897Z,-0.80
2018-11-23T06:25:43.089Z,-0.80
2018-11-23T06:28:11.525Z,-0.80
2018-11-23T06:30:39.949Z,-0.70
2018-11-23T06:33:47.863Z,-0.60
2018-11-23T06:36:16.284Z,-0.40
2018-11-23T06:38:44.738Z,-0.30
2018-11-23T06:41:13.295Z,-0.30
2018-11-23T06:43:41.780Z,-0.20
2018-11-23T06:46:11.501Z,-0.10
2018-11-23T06:48:39.996Z,0.00
2018-11-23T06:51:08.628Z,0.00
2018-11-23T06:53:37.080Z,0.10
2018-11-23T06:56:05.969Z,0.30
2018-11-23T06:58:34.396Z,0.50
2018-11-23T07:01:02.829Z,0.60
2018-11-23T07:03:31.321Z,0.70
2018-11-23T07:06:00.040Z,0.80
2018-11-23T07:08:28.461Z,0.80
2018-11-23T07:10:59.677Z,0.80
2018-11-23T07:13:28.965Z,0.80
2018-11-23T07:15:57.455Z,0.80
2018-11-23T07:18:25.890Z,0.80
2018-11-23T07:20:54.329Z,0.80
2018-11-23T07:23:22.836Z,0.90
2018-11-23T07:25:51.291Z,1.00
2018-11-23T07:28:19.713Z,1.00
2018-11-23T07:30:48.200Z,1.00
2018-11-23T07:33:16.648Z,1.00
2018-11-23T07:35:45.093Z,1.00
2018-11-23T07:38:13.574Z,1.00
2018-11-23T07:40:53.957Z,1.00
2018-11-23T07:43:22.520Z,1.00
2018-11-23T07:45:50.954Z,1.00
2018-11-23T07:48:19.374Z,1.10
2018-11-23T07:50:47.825Z,1.10
2018-11-23T07:53:16.253Z,1.00
2018-11-23T07:55:44.729Z,1.00
2018-11-23T07:58:13.144Z,1.00
2018-11-23T08:00:41.598Z,1.00
2018-11-23T08:03:10.026Z,1.00
2018-11-23T08:05:38.496Z,1.00
2018-11-23T08:08:07.132Z,1.00
2018-11-23T08:10:34.807Z,1.10
2018-11-23T08:13:03.246Z,1.20
2018-11-23T08:15:31.721Z,1.20
2018-11-23T08:18:00.145Z,1.20
2018-11-23T08:20:28.615Z,1.20
2018-11-23T08:22:57.029Z,1.20
2018-11-23T08:25:26.034Z,1.20
2018-11-23T08:27:55.625Z,1.20
2018-11-23T08:30:28.415Z,1.20
2018-11-23T08:32:57.201Z,1.20
2018-11-23T08:35:25.618Z,1.20
2018-11-23T08:37:54.054Z,1.20
2018-11-23T08:40:24.561Z,1.30
2018-11-23T08:42:53.689Z,1.30
2018-11-23T08:45:23.483Z,1.20
2018-11-23T08:47:52.089Z,1.10
2018-11-23T08:50:27.004Z,1.10
2018-11-23T08:52:55.441Z,1.20
2018-11-23T08:55:23.953Z,1.10
2018-11-23T08:57:53.165Z,1.20
2018-11-23T09:00:25.144Z,1.20
2018-11-23T09:02:55.069Z,1.20
2018-11-23T09:05:23.514Z,1.20
2018-11-23T09:07:53.174Z,1.20
2018-11-23T09:10:23.209Z,1.30
2018-11-23T09:12:53.427Z,1.30
2018-11-23T09:15:21.904Z,1.40
2018-11-23T09:17:50.349Z,1.40
2018-11-23T09:20:19.175Z,1.30
2018-11-23T09:22:47.668Z,1.30
2018-11-23T09:25:17.545Z,1.40
2018-11-23T09:27:45.965Z,1.50
2018-11-23T09:30:21.717Z,1.40
2018-11-23T09:32:51.063Z,1.40
2018-11-23T09:35:19.743Z,1.40
2018-11-23T09:37:48.813Z,1.50
2018-11-23T09:40:18.885Z,1.50
2018-11-23T09:42:47.397Z,1.50
2018-11-23T09:45:20.581Z,1.60
2018-11-23T09:47:50.057Z,1.50
2018-11-23T09:50:19.674Z,1.50
2018-11-23T09:52:49.261Z,1.60
2018-11-23T09:55:18.113Z,1.60
2018-11-23T09:57:46.537Z,1.60
2018-11-23T10:00:18.954Z,1.60
2018-11-23T10:02:48.304Z,1.60
2018-11-23T10:05:17.323Z,1.60
2018-11-23T10:07:47.112Z,1.60
2018-11-23T10:10:16.436Z,1.60
2018-11-23T10:12:44.901Z,1.60
2018-11-23T10:15:14.826Z,1.70
2018-11-23T10:17:43.319Z,1.70
2018-11-23T10:20:14.062Z,1.70
2018-11-23T10:22:42.779Z,1.60
2018-11-23T10:25:12.683Z,1.60
2018-11-23T10:27:41.736Z,1.60
2018-11-23T10:30:13.768Z,1.70
2018-11-23T10:32:42.241Z,1.70
2018-11-23T10:35:11.305Z,1.70
2018-11-23T10:37:40.681Z,1.80
2018-11-23T10:40:12.662Z,1.80
2018-11-23T10:42:41.342Z,1.80
2018-11-23T10:45:15.749Z,1.80
2018-11-23T10:47:45.234Z,1.80
2018-11-23T10:50:15.609Z,1.80
2018-11-23T10:52:44.127Z,1.90
2018-11-23T10:55:15.068Z,1.90
2018-11-23T10:57:43.542Z,1.90
2018-11-23T11:00:19.405Z,2.00
2018-11-23T11:03:54.032Z,2.00
2018-11-23T11:06:27.768Z,2.00
2018-11-23T11:08:56.214Z,2.10
2018-11-23T11:11:24.671Z,2.10
2018-11-23T11:13:53.094Z,2.10
2018-11-23T11:16:21.572Z,2.10
2018-11-23T11:18:50.009Z,2.10
2018-11-23T11:21:18.445Z,2.10
2018-11-23T11:23:46.881Z,2.20
2018-11-23T11:26:15.325Z,2.20
2018-11-23T11:28:43.749Z,2.20
2018-11-23T11:31:12.189Z,2.20
2018-11-23T11:33:40.605Z,2.30
2018-11-23T11:36:09.092Z,2.20
2018-11-23T11:38:37.516Z,2.30
2018-11-23T11:41:06.065Z,2.30
2018-11-23T11:43:34.509Z,2.30
2018-11-23T11:46:02.955Z,2.30
2018-11-23T11:48:31.381Z,2.30
2018-11-23T11:50:59.829Z,2.40
2018-11-23T11:53:28.241Z,2.30
2018-11-23T11:55:56.674Z,2.30
2018-11-23T11:58:25.105Z,2.30
2018-11-23T12:00:53.551Z,2.30
2018-11-23T12:03:21.992Z,2.40
2018-11-23T12:05:50.425Z,2.40
2018-11-23T12:08:18.865Z,2.40
2018-11-23T12:10:47.297Z,2.50
2018-11-23T12:13:15.794Z,2.40
2018-11-23T12:15:44.213Z,2.40
2018-11-23T12:18:12.680Z,2.40
2018-11-23T12:20:41.097Z,2.40
2018-11-23T12:23:09.548Z,2.40
2018-11-23T12:25:38.001Z,2.40
2018-11-23T12:28:06.485Z,2.30
2018-11-23T12:30:34.903Z,2.30
2018-11-23T12:33:03.345Z,2.40
2018-11-23T12:35:31.768Z,2.40
2018-11-23T12:38:00.234Z,2.40
2018-11-23T12:40:28.665Z,2.40
2018-11-23T12:42:57.108Z,2.40
2018-11-23T12:45:25.553Z,2.40
2018-11-23T12:47:54.001Z,2.40
2018-11-23T12:50:23.424Z,2.40
2018-11-23T12:52:51.910Z,2.40
2018-11-23T12:55:20.792Z,2.40
2018-11-23T12:57:50.264Z,2.40
2018-11-23T13:00:24.025Z,2.40
2018-11-23T13:02:54.153Z,2.50
2018-11-23T13:05:23.624Z,2.40
2018-11-23T13:07:53.052Z,2.50
2018-11-23T13:10:22.090Z,2.50
2018-11-23T13:12:51.048Z,2.50
2018-11-23T13:15:19.061Z,2.50
2018-11-23T13:17:47.527Z,2.50
2018-11-23T13:20:16.260Z,2.50
2018-11-23T13:22:44.805Z,2.40
2018-11-23T13:25:15.598Z,2.50
2018-11-23T13:27:44.112Z,2.50
2018-11-23T13:30:18.396Z,2.40
2018-11-23T13:32:46.828Z,2.50
2018-11-23T13:35:16.394Z,2.50
2018-11-23T13:37:44.809Z,2.40
2018-11-23T13:40:15.237Z,2.40
2018-11-23T13:42:43.971Z,2.50
2018-11-23T13:45:14.646Z,2.40
2018-11-23T13:47:43.099Z,2.50
2018-11-23T13:50:14.160Z,2.50
2018-11-23T13:52:45.672Z,2.50
2018-11-23T13:55:14.356Z,2.40
2018-11-23T13:57:42.835Z,2.40
2018-11-23T14:00:15.609Z,2.50
2018-11-23T14:02:44.635Z,2.40
2018-11-23T14:05:15.496Z,2.50
2018-11-23T14:07:44.963Z,2.50
2018-11-23T14:10:14.900Z,2.40
2018-11-23T14:12:43.772Z,2.40
2018-11-23T14:15:14.404Z,2.40
2018-11-23T14:17:43.506Z,2.50
2018-11-23T14:20:13.241Z,2.40
2018-11-23T14:22:41.717Z,2.40
2018-11-23T14:25:12.190Z,2.30
2018-11-23T14:27:40.932Z,2.40
2018-11-23T14:30:11.973Z,2.30
2018-11-23T14:32:40.755Z,2.30
2018-11-23T14:35:11.819Z,2.30
2018-11-23T14:37:40.676Z,2.30
2018-11-23T14:40:10.237Z,2.30
2018-11-23T14:42:39.511Z,2.30
2018-11-23T14:45:10.649Z,2.30
2018-11-23T14:47:39.164Z,2.30
2018-11-23T14:50:13.023Z,2.40
2018-11-23T14:52:41.710Z,2.30
2018-11-23T14:55:10.152Z,2.30
2018-11-23T14:57:39.716Z,2.20
2018-11-23T15:00:15.652Z,2.20
2018-11-23T15:02:45.073Z,2.20
2018-11-23T15:05:13.593Z,2.10
2018-11-23T15:07:42.049Z,2.20
2018-11-23T15:10:13.052Z,2.20
2018-11-23T15:12:41.545Z,2.20
2018-11-23T15:15:14.131Z,2.20
2018-11-23T15:17:43.613Z,2.10
2018-11-23T15:20:14.793Z,2.10
2018-11-23T15:22:43.684Z,2.10
2018-11-23T15:25:12.177Z,2.10
2018-11-23T15:27:41.573Z,2.00
2018-11-23T15:30:13.616Z,2.00
2018-11-23T15:32:42.641Z,2.00
2018-11-23T15:35:11.081Z,2.00
2018-11-23T15:37:39.532Z,2.00
2018-11-23T15:40:12.256Z,2.00
2018-11-23T15:42:40.726Z,2.00
2018-11-23T15:45:12.401Z,2.00
2018-11-23T15:47:40.852Z,2.10
2018-11-23T15:50:11.609Z,2.10
2018-11-23T15:52:40.140Z,2.10
2018-11-23T15:55:11.952Z,2.00
2018-11-23T15:57:40.864Z,2.00
2018-11-23T16:00:12.608Z,2.00
2018-11-23T16:02:41.073Z,2.10
2018-11-23T16:05:10.520Z,2.10
2018-11-23T16:07:38.960Z,2.10
2018-11-23T16:10:11.857Z,2.10
2018-11-23T16:12:40.341Z,2.00
2018-11-23T16:15:09.338Z,2.00
2018-11-23T16:17:38.025Z,1.90
2018-11-23T16:20:09.440Z,1.90
2018-11-23T16:22:37.900Z,1.90
2018-11-23T16:25:07.786Z,1.90
2018-11-23T16:27:36.369Z,2.00
2018-11-23T16:30:09.121Z,2.00
2018-11-23T16:32:37.558Z,2.00
2018-11-23T16:35:06.308Z,2.00
2018-11-23T16:37:34.757Z,2.00
2018-11-23T16:40:03.263Z,2.00
2018-11-23T16:42:31.718Z,2.00
2018-11-23T16:45:00.170Z,2.00
2018-11-23T16:47:28.593Z,1.90
2018-11-23T16:49:57.036Z,1.90
2018-11-23T16:52:25.496Z,1.90
2018-11-23T16:54:53.940Z,1.90
2018-11-23T16:57:22.364Z,1.90
2018-11-23T16:59:50.817Z,2.10
2018-11-23T17:02:19.229Z,2.10
2018-11-23T17:04:47.717Z,2.10
2018-11-23T17:07:16.137Z,2.00
2018-11-23T17:09:44.581Z,2.00
2018-11-23T17:12:12.996Z,2.00
2018-11-23T17:14:41.428Z,2.00
2018-11-23T17:17:09.857Z,2.00
2018-11-23T17:19:38.309Z,2.10
2018-11-23T17:22:07.154Z,2.00
2018-11-23T17:24:35.589Z,2.00
2018-11-23T17:27:04.043Z,2.00
2018-11-23T17:29:32.626Z,2.00
2018-11-23T17:32:01.050Z,2.10
2018-11-23T17:34:29.488Z,2.00
2018-11-23T17:36:58.009Z,2.00
2018-11-23T17:39:26.440Z,2.10
2018-11-23T17:41:54.912Z,2.10
2018-11-23T17:44:23.401Z,2.10
2018-11-23T17:46:51.809Z,2.00
2018-11-23T17:49:20.476Z,2.00
2018-11-23T17:51:48.900Z,2.00
2018-11-23T17:54:17.414Z,2.00
2018-11-23T17:56:45.827Z,2.00
2018-11-23T17:59:14.241Z,2.00
2018-11-23T18:01:42.682Z,2.00
2018-11-23T18:04:11.105Z,2.00
2018-11-23T18:06:39.548Z,2.00
2018-11-23T18:09:08.421Z,2.00
2018-11-23T18:11:37.001Z,2.10
2018-11-23T18:14:05.778Z,2.00
2018-11-23T18:16:34.213Z,2.00
2018-11-23T18:19:02.633Z,2.00
2018-11-23T18:21:31.084Z,2.00
2018-11-23T18:23:59.505Z,2.10
2018-11-23T18:26:28.009Z,2.10
2018-11-23T18:28:56.472Z,2.10
2018-11-23T18:31:24.980Z,2.00
2018-11-23T18:33:53.451Z,2.10
2018-11-23T18:36:21.911Z,2.10
2018-11-23T18:38:50.346Z,2.10
2018-11-23T18:41:18.790Z,2.10
2018-11-23T18:43:47.248Z,2.10
2018-11-23T18:46:15.676Z,2.10
2018-11-23T18:48:44.133Z,2.10
2018-11-23T18:51:12.573Z,2.10
2018-11-23T18:53:41.005Z,2.10
2018-11-23T18:56:09.444Z,2.20
2018-11-23T18:58:37.886Z,2.20
2018-11-23T19:01:06.362Z,2.30
2018-11-23T19:03:34.788Z,2.30
2018-11-23T19:06:03.219Z,2.30
2018-11-23T19:08:31.661Z,2.30
2018-11-23T19:11:00.087Z,2.20
2018-11-23T19:13:28.549Z,2.30
2018-11-23T19:15:56.965Z,2.30
2018-11-23T19:18:25.442Z,2.40
2018-11-23T19:20:53.864Z,2.30
2018-11-23T19:23:22.298Z,2.30
2018-11-23T19:25:50.739Z,2.30
2018-11-23T19:28:19.180Z,2.30
2018-11-23T19:30:47.605Z,2.30
2018-11-23T19:33:16.032Z,2.30
2018-11-23T19:35:44.473Z,2.40
2018-11-23T19:38:12.916Z,2.30
2018-11-23T19:40:41.325Z,2.40
2018-11-23T19:43:09.773Z,2.40
2018-11-23T19:45:38.204Z,2.30
2018-11-23T19:48:06.996Z,2.40
2018-11-23T19:50:35.408Z,2.30
2018-11-23T19:53:03.904Z,2.50
2018-11-23T19:55:32.345Z,2.40
2018-11-23T19:58:00.797Z,2.50
2018-11-23T20:00:29.237Z,2.50
2018-11-23T20:02:57.668Z,2.50
2018-11-23T20:05:26.085Z,2.40
2018-11-23T20:07:55.916Z,2.40
2018-11-23T20:10:24.901Z,2.40
2018-11-23T20:12:55.669Z,2.40
2018-11-23T20:15:24.161Z,2.40
2018-11-23T20:17:52.649Z,2.40
2018-11-23T20:20:21.101Z,2.40
2018-11-23T20:22:50.390Z,2.40
2018-11-23T20:25:20.545Z,2.40
2018-11-23T20:27:50.220Z,2.50
2018-11-23T20:30:19.434Z,2.50
2018-11-23T20:32:47.914Z,2.60
2018-11-23T20:35:17.441Z,2.60
2018-11-23T20:37:45.878Z,2.60
2018-11-23T20:40:22.981Z,2.50
2018-11-23T20:42:51.554Z,2.50
2018-11-23T20:45:20.005Z,2.50
2018-11-23T20:47:48.433Z,2.60
2018-11-23T20:50:17.656Z,2.50
2018-11-23T20:52:46.076Z,2.60
2018-11-23T20:55:17.693Z,2.60
2018-11-23T20:57:46.162Z,2.60
2018-11-23T21:00:15.593Z,2.60
2018-11-23T21:02:44.527Z,2.60
2018-11-23T21:05:14.102Z,2.60
2018-11-23T21:07:42.557Z,2.60
2018-11-23T21:10:19.626Z,2.60
2018-11-23T21:12:40.743Z,2.60
2018-11-23T21:15:30.929Z,2.60
2018-11-23T21:18:01.558Z,2.50
2018-11-23T21:20:29.436Z,2.50
2018-11-23T21:22:57.885Z,2.60
2018-11-23T21:25:26.345Z,2.60
2018-11-23T21:27:54.855Z,2.60
2018-11-23T21:30:23.966Z,2.70
2018-11-23T21:32:53.348Z,2.60
2018-11-23T21:35:21.921Z,2.60
2018-11-23T21:37:50.341Z,2.60
2018-11-23T21:40:18.789Z,2.60
2018-11-23T21:42:47.253Z,2.60
2018-11-23T21:45:19.579Z,2.60
2018-11-23T21:47:48.018Z,2.60
2018-11-23T21:50:24.962Z,2.60
2018-11-23T21:52:47.634Z,2.60
2018-11-23T21:55:21.369Z,2.60
2018-11-23T21:57:49.961Z,2.60
2018-11-23T22:00:18.508Z,2.60
2018-11-23T22:02:46.950Z,2.60
2018-11-23T22:05:15.481Z,2.60
2018-11-23T22:07:44.021Z,2.50
2018-11-23T22:10:17.302Z,2.60
2018-11-23T22:12:45.829Z,2.60
2018-11-23T22:15:15.682Z,2.60
2018-11-23T22:17:44.143Z,2.60
2018-11-23T22:20:14.734Z,2.60
2018-11-23T22:22:43.266Z,2.50
2018-11-23T22:25:12.777Z,2.60
2018-11-23T22:27:41.290Z,2.60
2018-11-23T22:30:12.247Z,2.60
2018-11-23T22:32:40.737Z,2.50
2018-11-23T22:35:10.172Z,2.60
2018-11-23T22:37:38.621Z,2.50
2018-11-23T22:40:13.894Z,2.60
2018-11-23T22:42:44.437Z,2.60
2018-11-23T22:45:13.632Z,2.60
2018-11-23T22:47:42.111Z,2.50
2018-11-23T22:50:12.717Z,2.50
2018-11-23T22:52:41.182Z,2.50
2018-11-23T22:55:10.852Z,2.50
2018-11-23T22:57:39.277Z,2.60
2018-11-23T23:00:21.197Z,2.50
2018-11-23T23:02:50.176Z,2.50
2018-11-23T23:05:19.733Z,2.50
2018-11-23T23:07:48.149Z,2.50
2018-11-23T23:10:16.589Z,2.40
2018-11-23T23:12:45.017Z,2.50
2018-11-23T23:15:13.489Z,2.50
2018-11-23T23:17:42.173Z,2.50
2018-11-23T23:20:13.857Z,2.40
2018-11-23T23:22:42.281Z,2.40
2018-11-23T23:25:11.596Z,2.40
2018-11-23T23:27:40.021Z,2.40
2018-11-23T23:30:11.524Z,2.40
2018-11-23T23:32:40.048Z,2.30
2018-11-23T23:35:09.524Z,2.30
2018-11-23T23:37:38.051Z,2.30
2018-11-23T23:40:09.336Z,2.30
2018-11-23T23:42:37.802Z,2.20
2018-11-23T23:45:10.130Z,2.20
2018-11-23T23:47:38.634Z,2.20
2018-11-23T23:50:12.189Z,2.10
2018-11-23T23:52:40.613Z,2.10
2018-11-23T23:55:09.800Z,2.00
2018-11-23T23:57:38.853Z,1.90
